Nathan G — WDJ6251 — position and weather

sailwx.info

Track history (hours):
 
Tides and Currents Weather Stations Pressure Air Temp Water Temp Dewpoint Dewpoint Depression Visibility Wind Speed Wind Dir Waves Ship Positions

Nathan G

Owner: New York State Marine Highway Transportation LLC, Troy, NY. More information available from US FCC via Universal Licensing System and Coast Guard Vessel Documentation Center.

Last reported at 2018-Apr-24 04:43 UTC. Time now 2018-Apr-24 14:42 UTC.
Position N 40°44' W 073°58'.

Length 18 m; draft 3 m.

MMSI: 367795910.

Date/timePositionNaut miles runAvg speedWind from/ knotsBaromVisibWave heightAir tempDewpointWater temp
2018-Apr-24 04:43N 40°44' W 073°58'2 7.4
2018-Apr-24 04:27N 40°42' W 073°60'3 7.0
2018-Apr-24 04:00N 40°40' W 074°02'1 0.1
2018-Apr-23 16:09N 40°39' W 074°02'1 4.5
2018-Apr-23 16:00N 40°39' W 074°02'0 0.0
2018-Apr-23 15:27N 40°39' W 074°02'0 0.0
2018-Apr-23 14:58N 40°39' W 074°02'0 0.0
2018-Apr-23 14:30N 40°39' W 074°02'0 0.0
2018-Apr-23 13:51N 40°39' W 074°02'0 0.0
2018-Apr-23 13:24N 40°39' W 074°02'0 0.0
2018-Apr-23 12:54N 40°39' W 074°02'0 0.0
2018-Apr-23 12:12N 40°39' W 074°02'0 0.0
2018-Apr-23 11:43N 40°39' W 074°02'0 0.1
2018-Apr-23 11:30N 40°39' W 074°02'0 0.0
2018-Apr-23 11:00N 40°39' W 074°02'0 0.0
2018-Apr-23 10:30N 40°39' W 074°02'0 0.0
2018-Apr-23 10:00N 40°39' W 074°02'0 0.0
2018-Apr-23 09:18N 40°39' W 074°02'0 0.0
2018-Apr-23 09:00N 40°39' W 074°02'0 0.1
2018-Apr-23 08:28N 40°39' W 074°02'0 0.1
2018-Apr-23 08:00N 40°39' W 074°02'0 0.0
2018-Apr-23 07:30N 40°39' W 074°02'0 0.0
2018-Apr-23 07:00N 40°39' W 074°02'0 0.0
2018-Apr-23 06:30N 40°39' W 074°02'0 0.0
2018-Apr-23 06:00N 40°39' W 074°02'0 0.0
2018-Apr-23 05:30N 40°39' W 074°02'0 0.0
2018-Apr-23 05:00N 40°39' W 074°02'0 0.0
2018-Apr-23 04:30N 40°39' W 074°02'0 0.0
2018-Apr-23 04:00N 40°39' W 074°02'0 0.1
2018-Apr-23 03:30N 40°39' W 074°02'0 0.0
2018-Apr-23 03:00N 40°39' W 074°02'2 3.3
2018-Apr-23 02:29N 40°39' W 074°04'2 1.7
2018-Apr-23 01:26N 40°39' W 074°07'1 1.7
2018-Apr-23 00:57N 40°39' W 074°06'1 3.0
2018-Apr-23 00:28N 40°40' W 074°04'0 0.1
2018-Apr-23 00:00N 40°40' W 074°04'0 0.0
2018-Apr-22 23:30N 40°40' W 074°04'0 0.0
2018-Apr-22 23:00N 40°40' W 074°04'0 0.0
2018-Apr-22 22:30N 40°40' W 074°04'0 0.0
2018-Apr-22 22:00N 40°40' W 074°04'0 0.0
2018-Apr-22 21:30N 40°40' W 074°04'1 1.2
2018-Apr-22 21:00N 40°39' W 074°04'9 0.5
2018-Apr-22 04:53N 40°34' W 073°55'1 0.3
2018-Apr-22 01:02N 40°34' W 073°53'1 8.0
2018-Apr-22 00:58N 40°34' W 073°54'3 6.7
2018-Apr-22 00:30N 40°34' W 073°58'3 5.3
2018-Apr-22 00:00N 40°34' W 074°01'1 2.7
2018-Apr-21 23:30N 40°36' W 074°02'0 0.3
2018-Apr-21 22:59N 40°36' W 074°02'0 0.5
2018-Apr-21 22:30N 40°35' W 074°02'0 1.0
2018-Apr-21 22:00N 40°36' W 074°02'3 6.4
2018-Apr-21 21:30N 40°39' W 074°02'0 0.4
2018-Apr-21 21:00N 40°39' W 074°02'2 4.5
2018-Apr-21 20:30N 40°37' W 074°03'2 4.4
2018-Apr-21 20:00N 40°35' W 074°01'6 0.4
2018-Apr-21 04:57N 40°34' W 073°54'4 7.1
2018-Apr-21 04:24N 40°34' W 073°59'3 6.3
2018-Apr-21 04:00N 40°35' W 074°02'3 6.4
2018-Apr-21 03:30N 40°38' W 074°04'3 5.3
2018-Apr-21 02:58N 40°39' W 074°07'3 6.6
2018-Apr-21 02:30N 40°38' W 074°11'10 1.9
2018-Apr-20 21:29N 40°32' W 074°03'6 8.0
2018-Apr-20 20:40N 40°33' W 073°54'1 8.3
2018-Apr-20 20:29N 40°33' W 073°53'5 0.7
2018-Apr-20 12:44N 40°34' W 073°60'1 3.5
2018-Apr-20 12:30N 40°34' W 074°01'2 4.5
2018-Apr-20 12:00N 40°36' W 074°02'2 4.9
2018-Apr-20 11:30N 40°38' W 074°02'1 2.0
2018-Apr-20 11:00N 40°39' W 074°02'0 0.0
2018-Apr-20 10:30N 40°39' W 074°02'0 0.0
2018-Apr-20 10:00N 40°39' W 074°02'0 0.0
2018-Apr-20 09:30N 40°39' W 074°02'0 0.0
2018-Apr-20 09:00N 40°39' W 074°02'0 0.0
2018-Apr-20 08:30N 40°39' W 074°02'0 0.0
2018-Apr-20 08:00N 40°39' W 074°02'0 0.0
2018-Apr-20 07:30N 40°39' W 074°02'0 0.0
2018-Apr-20 07:00N 40°39' W 074°02'0 0.0
2018-Apr-20 06:30N 40°39' W 074°02'0 0.0
2018-Apr-20 06:00N 40°39' W 074°02'0 0.1
2018-Apr-20 05:30N 40°39' W 074°02'0 0.1
2018-Apr-20 05:00N 40°39' W 074°02'0 0.0
2018-Apr-20 04:30N 40°39' W 074°02'0 0.1
2018-Apr-20 04:00N 40°39' W 074°02'0 0.1
2018-Apr-20 03:30N 40°39' W 074°02'0 0.3
2018-Apr-20 03:00N 40°40' W 074°02'0 0.3
2018-Apr-20 02:30N 40°39' W 074°02'0 0.0
2018-Apr-20 02:00N 40°39' W 074°02'0 0.0
2018-Apr-20 01:30N 40°39' W 074°02'0 0.0
2018-Apr-20 01:00N 40°39' W 074°02'0 0.0
2018-Apr-20 00:30N 40°39' W 074°02'0 0.0
2018-Apr-20 00:00N 40°39' W 074°02'1 2.8
2018-Apr-19 23:30N 40°41' W 074°01'4 7.1
2018-Apr-19 23:00N 40°43' W 073°58'4 8.5
2018-Apr-19 22:30N 40°47' W 073°55'4 0.4
2018-Apr-19 12:29N 40°48' W 073°51'3 6.1
2018-Apr-19 12:00N 40°47' W 073°55'3 6.1
2018-Apr-19 11:30N 40°45' W 073°58'3 5.3
2018-Apr-19 11:00N 40°43' W 073°58'2 5.0
2018-Apr-19 10:30N 40°41' W 074°01'2 3.8
2018-Apr-19 10:00N 40°39' W 074°02'0 0.0
2018-Apr-19 09:30N 40°39' W 074°02'0 0.0
2018-Apr-19 09:00N 40°39' W 074°02'0 0.0
2018-Apr-19 08:30N 40°39' W 074°02'0 0.1
2018-Apr-19 08:00N 40°39' W 074°02'2 3.0
2018-Apr-19 07:30N 40°38' W 074°03'2 3.8
2018-Apr-19 07:00N 40°36' W 074°02'2 3.9
2018-Apr-19 06:28N 40°34' W 074°01'4 5.6
2018-Apr-19 05:49N 40°34' W 073°56'2 0.3
2018-Apr-18 22:14N 40°34' W 073°59'1 5.8
2018-Apr-18 22:00N 40°34' W 074°01'4 8.0
2018-Apr-18 21:30N 40°38' W 074°03'1 2.7
2018-Apr-18 21:00N 40°39' W 074°02'0 0.0
2018-Apr-18 20:30N 40°39' W 074°02'0 0.0
2018-Apr-18 20:00N 40°39' W 074°02'0 0.0
2018-Apr-18 19:30N 40°39' W 074°02'0 0.0
2018-Apr-18 19:00N 40°39' W 074°02'0 0.0
2018-Apr-18 18:30N 40°39' W 074°02'0 0.0
2018-Apr-18 18:00N 40°39' W 074°02'0 0.1
2018-Apr-18 17:30N 40°39' W 074°02'0 0.5
2018-Apr-18 17:00N 40°40' W 074°02'3 5.7
2018-Apr-18 16:30N 40°42' W 073°60'3 5.7
2018-Apr-18 16:00N 40°45' W 073°58'3 5.2
2018-Apr-18 15:30N 40°47' W 073°56'7 3.5
2018-Apr-18 13:31N 40°48' W 073°47'2 0.1
2018-Apr-17 23:30N 40°48' W 073°49'4 7.1
2018-Apr-17 22:59N 40°48' W 073°54'3 7.2
2018-Apr-17 22:30N 40°45' W 073°57'3 5.9
2018-Apr-17 21:57N 40°42' W 073°59'2 5.3
2018-Apr-17 21:30N 40°41' W 074°01'2 3.2
2018-Apr-17 21:00N 40°39' W 074°02'0 0.1
2018-Apr-17 20:30N 40°39' W 074°02'2 3.2
2018-Apr-17 20:00N 40°40' W 074°04'0 0.0
2018-Apr-17 19:30N 40°40' W 074°04'0 0.0
2018-Apr-17 18:59N 40°40' W 074°04'0 0.0
2018-Apr-17 18:30N 40°40' W 074°04'0 0.0
2018-Apr-17 17:59N 40°40' W 074°04'0 0.0
2018-Apr-17 17:30N 40°40' W 074°04'0 0.0
2018-Apr-17 17:00N 40°40' W 074°04'0 0.0
2018-Apr-17 16:30N 40°40' W 074°04'0 0.0
2018-Apr-17 16:00N 40°40' W 074°04'0 0.0
2018-Apr-17 15:30N 40°40' W 074°04'0 0.0
2018-Apr-17 15:00N 40°40' W 074°04'0 0.0
2018-Apr-17 14:30N 40°40' W 074°04'0 0.0
2018-Apr-17 14:00N 40°40' W 074°04'1 1.1
2018-Apr-17 13:30N 40°39' W 074°04'2 3.4
2018-Apr-17 13:00N 40°39' W 074°07'0 0.0
2018-Apr-17 12:29N 40°39' W 074°07'2 4.4
2018-Apr-17 12:00N 40°40' W 074°04'0 0.0
2018-Apr-17 11:30N 40°40' W 074°04'0 0.0
2018-Apr-17 11:00N 40°40' W 074°04'2 3.7
2018-Apr-17 10:29N 40°38' W 074°02'1 1.9
2018-Apr-17 10:00N 40°39' W 074°02'0 0.1
2018-Apr-17 09:30N 40°39' W 074°02'0 0.0
2018-Apr-17 09:00N 40°39' W 074°02'0 0.0
2018-Apr-17 08:30N 40°39' W 074°02'0 0.0
2018-Apr-17 08:00N 40°39' W 074°02'0 0.0
2018-Apr-17 07:30N 40°39' W 074°02'0 0.0
2018-Apr-17 07:00N 40°39' W 074°02'0 0.0
2018-Apr-17 06:30N 40°39' W 074°02'0 0.0
2018-Apr-17 06:00N 40°39' W 074°02'0 0.0
2018-Apr-17 05:30N 40°39' W 074°02'0 0.0
2018-Apr-17 05:00N 40°39' W 074°02'0 0.0
2018-Apr-17 04:30N 40°39' W 074°02'0 0.0
2018-Apr-17 04:00N 40°39' W 074°02'0 0.1
2018-Apr-17 03:30N 40°39' W 074°02'0 0.1
2018-Apr-17 03:00N 40°39' W 074°02'0 0.1
2018-Apr-17 02:30N 40°39' W 074°02'0 0.1
2018-Apr-17 02:00N 40°39' W 074°02'0 0.0
2018-Apr-17 01:30N 40°39' W 074°02'0 0.0
2018-Apr-17 01:00N 40°39' W 074°02'0 0.0
2018-Apr-17 00:30N 40°39' W 074°02'0 0.4
2018-Apr-17 00:00N 40°40' W 074°02'0 0.1
2018-Apr-16 23:30N 40°40' W 074°02'0 0.0
2018-Apr-16 22:59N 40°40' W 074°02'0 0.0
2018-Apr-16 22:30N 40°40' W 074°02'0 0.0
2018-Apr-16 22:00N 40°40' W 074°02'0 0.2
2018-Apr-16 21:30N 40°40' W 074°02'0 0.1
2018-Apr-16 21:00N 40°40' W 074°02'0 0.0
2018-Apr-16 20:29N 40°40' W 074°02'0 0.6
2018-Apr-16 20:00N 40°39' W 074°02'0 0.7
2018-Apr-16 19:30N 40°40' W 074°02'0 0.6
2018-Apr-16 19:00N 40°40' W 074°02'0 0.0
2018-Apr-16 18:30N 40°40' W 074°02'0 0.0
2018-Apr-16 18:00N 40°40' W 074°02'0 0.0
2018-Apr-16 17:30N 40°40' W 074°02'0 0.0
2018-Apr-16 17:00N 40°40' W 074°02'0 0.0
2018-Apr-16 16:30N 40°40' W 074°02'0 0.0
2018-Apr-16 16:00N 40°40' W 074°02'0 0.0
2018-Apr-16 15:30N 40°40' W 074°02'0 0.0
2018-Apr-16 15:00N 40°40' W 074°02'0 0.2
2018-Apr-16 14:30N 40°39' W 074°02'0 0.0
2018-Apr-16 14:00N 40°39' W 074°02'0 0.1
2018-Apr-16 13:30N 40°39' W 074°02'2 2.6
2018-Apr-16 12:50N 40°40' W 074°04'0 0.0
2018-Apr-16 12:30N 40°40' W 074°04'0 0.0
2018-Apr-16 12:00N 40°40' W 074°04'0 0.0
2018-Apr-16 11:30N 40°40' W 074°04'2 3.4
2018-Apr-16 11:00N 40°39' W 074°02'0 0.0
2018-Apr-16 10:28N 40°39' W 074°02'0 0.0
2018-Apr-16 10:00N 40°39' W 074°02'0 0.1
2018-Apr-16 09:30N 40°39' W 074°02'0 0.0
2018-Apr-16 09:00N 40°39' W 074°02'0 0.0
2018-Apr-16 08:30N 40°39' W 074°02'0 0.0
2018-Apr-16 08:00N 40°39' W 074°02'0 0.0
2018-Apr-16 07:30N 40°39' W 074°02'0 0.0
2018-Apr-16 07:00N 40°39' W 074°02'0 0.0
2018-Apr-16 06:30N 40°39' W 074°02'0 0.0
2018-Apr-16 06:00N 40°39' W 074°02'0 0.0
2018-Apr-16 05:30N 40°39' W 074°02'0 0.0
2018-Apr-16 05:00N 40°39' W 074°02'0 0.0
2018-Apr-16 04:30N 40°39' W 074°02'0 0.0
2018-Apr-16 04:00N 40°39' W 074°02'0 0.0
2018-Apr-16 03:30N 40°39' W 074°02'0 0.0
2018-Apr-16 03:00N 40°39' W 074°02'0 0.0
2018-Apr-16 02:30N 40°39' W 074°02'0 0.0
2018-Apr-16 02:00N 40°39' W 074°02'0 0.0
2018-Apr-16 01:30N 40°39' W 074°02'0 0.0
2018-Apr-16 01:00N 40°39' W 074°02'0 0.0
2018-Apr-16 00:30N 40°40' W 074°02'0 0.0
2018-Apr-16 00:00N 40°40' W 074°02'0 0.0
2018-Apr-15 23:29N 40°40' W 074°02'0 0.0
2018-Apr-15 23:00N 40°40' W 074°02'0 0.1
2018-Apr-15 22:30N 40°40' W 074°02'1 2.8
2018-Apr-15 22:00N 40°40' W 074°03'1 1.5
2018-Apr-15 21:30N 40°40' W 074°04'0 0.0
2018-Apr-15 21:00N 40°40' W 074°04'0 0.0
2018-Apr-15 20:30N 40°40' W 074°04'0 0.0
2018-Apr-15 20:00N 40°40' W 074°04'1 1.8
2018-Apr-15 19:30N 40°41' W 074°04'2 4.1
2018-Apr-15 19:00N 40°39' W 074°02'0 0.0
2018-Apr-15 18:30N 40°39' W 074°02'0 0.0
2018-Apr-15 18:00N 40°39' W 074°02'0 0.0
2018-Apr-15 17:30N 40°39' W 074°02'0 0.0
2018-Apr-15 17:00N 40°39' W 074°02'0 0.0
2018-Apr-15 16:30N 40°39' W 074°02'0 0.0
2018-Apr-15 16:00N 40°39' W 074°02'0 0.0
2018-Apr-15 15:30N 40°39' W 074°02'0 0.0
2018-Apr-15 15:00N 40°39' W 074°02'0 0.0
2018-Apr-15 14:30N 40°39' W 074°02'0 0.0
2018-Apr-15 14:00N 40°39' W 074°02'0 0.1
2018-Apr-15 13:30N 40°39' W 074°02'0 0.1
2018-Apr-15 13:00N 40°39' W 074°02'0 0.1
2018-Apr-15 12:30N 40°40' W 074°02'0 0.0
2018-Apr-15 12:00N 40°39' W 074°02'0 0.0
2018-Apr-15 11:30N 40°39' W 074°02'0 0.0
2018-Apr-15 11:00N 40°39' W 074°02'0 0.0
2018-Apr-15 10:30N 40°39' W 074°02'0 0.0
2018-Apr-15 10:00N 40°39' W 074°02'0 0.0
2018-Apr-15 09:30N 40°40' W 074°02'0 0.0
2018-Apr-15 09:00N 40°39' W 074°02'0 0.0
2018-Apr-15 08:30N 40°39' W 074°02'0 0.0
2018-Apr-15 08:00N 40°39' W 074°02'0 0.0
2018-Apr-15 07:30N 40°39' W 074°02'0 0.0
2018-Apr-15 07:00N 40°39' W 074°02'0 0.0
2018-Apr-15 06:30N 40°39' W 074°02'0 0.0
2018-Apr-15 06:00N 40°39' W 074°02'0 0.0
2018-Apr-15 05:30N 40°39' W 074°02'0 0.0
2018-Apr-15 05:00N 40°39' W 074°02'0 0.0
2018-Apr-15 04:30N 40°39' W 074°02'0 0.1
2018-Apr-15 04:00N 40°39' W 074°02'0 0.0
2018-Apr-15 03:30N 40°39' W 074°02'0 0.1
2018-Apr-15 03:00N 40°39' W 074°02'0 0.0
2018-Apr-15 02:30N 40°39' W 074°02'0 0.0
2018-Apr-15 02:00N 40°39' W 074°02'0 0.0
2018-Apr-15 01:30N 40°39' W 074°02'0 0.0
2018-Apr-15 01:00N 40°39' W 074°02'0 0.1
2018-Apr-15 00:30N 40°40' W 074°02'0 0.0
2018-Apr-15 00:00N 40°40' W 074°02'0 0.0
2018-Apr-14 23:30N 40°40' W 074°02'0 0.0
2018-Apr-14 23:00N 40°40' W 074°02'0 0.7
2018-Apr-14 22:30N 40°39' W 074°02'2 3.4
2018-Apr-14 22:00N 40°37' W 074°03'4 7.5
2018-Apr-14 21:27N 40°33' W 074°02'3 0.4
2018-Apr-14 14:03N 40°31' W 074°04'1 5.4
2018-Apr-14 13:51N 40°31' W 074°03'2 5.7
2018-Apr-14 13:30N 40°33' W 074°02'3 4.8
2018-Apr-14 12:50N 40°34' W 073°58'2 6.5
2018-Apr-14 12:30N 40°34' W 073°55'  
Track history (hours):
 
Tides and Currents Weather Stations Pressure Air Temp Water Temp Dewpoint Dewpoint Depression Visibility Wind Speed Wind Dir Waves Ship Positions

Nathan G

Owner: New York State Marine Highway Transportation LLC, Troy, NY. More information available from US FCC via Universal Licensing System and Coast Guard Vessel Documentation Center.

Last reported at 2018-Apr-24 04:43 UTC. Time now 2018-Apr-24 14:42 UTC.
Position N 40°44' W 073°58'.

Length 18 m; draft 3 m.

MMSI: 367795910.

Date/timePositionNaut miles runAvg speedWind from/ knotsBaromVisibWave heightAir tempDewpointWater temp
2018-Apr-24 04:43N 40°44' W 073°58'2 7.4
2018-Apr-24 04:27N 40°42' W 073°60'3 7.0
2018-Apr-24 04:00N 40°40' W 074°02'1 0.1
2018-Apr-23 16:09N 40°39' W 074°02'1 4.5
2018-Apr-23 16:00N 40°39' W 074°02'0 0.0
2018-Apr-23 15:27N 40°39' W 074°02'0 0.0
2018-Apr-23 14:58N 40°39' W 074°02'0 0.0
2018-Apr-23 14:30N 40°39' W 074°02'0 0.0
2018-Apr-23 13:51N 40°39' W 074°02'0 0.0
2018-Apr-23 13:24N 40°39' W 074°02'0 0.0
2018-Apr-23 12:54N 40°39' W 074°02'0 0.0
2018-Apr-23 12:12N 40°39' W 074°02'0 0.0
2018-Apr-23 11:43N 40°39' W 074°02'0 0.1
2018-Apr-23 11:30N 40°39' W 074°02'0 0.0
2018-Apr-23 11:00N 40°39' W 074°02'0 0.0
2018-Apr-23 10:30N 40°39' W 074°02'0 0.0
2018-Apr-23 10:00N 40°39' W 074°02'0 0.0
2018-Apr-23 09:18N 40°39' W 074°02'0 0.0
2018-Apr-23 09:00N 40°39' W 074°02'0 0.1
2018-Apr-23 08:28N 40°39' W 074°02'0 0.1
2018-Apr-23 08:00N 40°39' W 074°02'0 0.0
2018-Apr-23 07:30N 40°39' W 074°02'0 0.0
2018-Apr-23 07:00N 40°39' W 074°02'0 0.0
2018-Apr-23 06:30N 40°39' W 074°02'0 0.0
2018-Apr-23 06:00N 40°39' W 074°02'0 0.0
2018-Apr-23 05:30N 40°39' W 074°02'0 0.0
2018-Apr-23 05:00N 40°39' W 074°02'0 0.0
2018-Apr-23 04:30N 40°39' W 074°02'0 0.0
2018-Apr-23 04:00N 40°39' W 074°02'0 0.1
2018-Apr-23 03:30N 40°39' W 074°02'0 0.0
2018-Apr-23 03:00N 40°39' W 074°02'2 3.3
2018-Apr-23 02:29N 40°39' W 074°04'2 1.7
2018-Apr-23 01:26N 40°39' W 074°07'1 1.7
2018-Apr-23 00:57N 40°39' W 074°06'1 3.0
2018-Apr-23 00:28N 40°40' W 074°04'0 0.1
2018-Apr-23 00:00N 40°40' W 074°04'0 0.0
2018-Apr-22 23:30N 40°40' W 074°04'0 0.0
2018-Apr-22 23:00N 40°40' W 074°04'0 0.0
2018-Apr-22 22:30N 40°40' W 074°04'0 0.0
2018-Apr-22 22:00N 40°40' W 074°04'0 0.0
2018-Apr-22 21:30N 40°40' W 074°04'1 1.2
2018-Apr-22 21:00N 40°39' W 074°04'9 0.5
2018-Apr-22 04:53N 40°34' W 073°55'1 0.3
2018-Apr-22 01:02N 40°34' W 073°53'1 8.0
2018-Apr-22 00:58N 40°34' W 073°54'3 6.7
2018-Apr-22 00:30N 40°34' W 073°58'3 5.3
2018-Apr-22 00:00N 40°34' W 074°01'1 2.7
2018-Apr-21 23:30N 40°36' W 074°02'0 0.3
2018-Apr-21 22:59N 40°36' W 074°02'0 0.5
2018-Apr-21 22:30N 40°35' W 074°02'0 1.0
2018-Apr-21 22:00N 40°36' W 074°02'3 6.4
2018-Apr-21 21:30N 40°39' W 074°02'0 0.4
2018-Apr-21 21:00N 40°39' W 074°02'2 4.5
2018-Apr-21 20:30N 40°37' W 074°03'2 4.4
2018-Apr-21 20:00N 40°35' W 074°01'6 0.4
2018-Apr-21 04:57N 40°34' W 073°54'4 7.1
2018-Apr-21 04:24N 40°34' W 073°59'3 6.3
2018-Apr-21 04:00N 40°35' W 074°02'3 6.4
2018-Apr-21 03:30N 40°38' W 074°04'3 5.3
2018-Apr-21 02:58N 40°39' W 074°07'3 6.6
2018-Apr-21 02:30N 40°38' W 074°11'10 1.9
2018-Apr-20 21:29N 40°32' W 074°03'6 8.0
2018-Apr-20 20:40N 40°33' W 073°54'1 8.3
2018-Apr-20 20:29N 40°33' W 073°53'5 0.7
2018-Apr-20 12:44N 40°34' W 073°60'1 3.5
2018-Apr-20 12:30N 40°34' W 074°01'2 4.5
2018-Apr-20 12:00N 40°36' W 074°02'2 4.9
2018-Apr-20 11:30N 40°38' W 074°02'1 2.0
2018-Apr-20 11:00N 40°39' W 074°02'0 0.0
2018-Apr-20 10:30N 40°39' W 074°02'0 0.0
2018-Apr-20 10:00N 40°39' W 074°02'0 0.0
2018-Apr-20 09:30N 40°39' W 074°02'0 0.0
2018-Apr-20 09:00N 40°39' W 074°02'0 0.0
2018-Apr-20 08:30N 40°39' W 074°02'0 0.0
2018-Apr-20 08:00N 40°39' W 074°02'0 0.0
2018-Apr-20 07:30N 40°39' W 074°02'0 0.0
2018-Apr-20 07:00N 40°39' W 074°02'0 0.0
2018-Apr-20 06:30N 40°39' W 074°02'0 0.0
2018-Apr-20 06:00N 40°39' W 074°02'0 0.1
2018-Apr-20 05:30N 40°39' W 074°02'0 0.1
2018-Apr-20 05:00N 40°39' W 074°02'0 0.0
2018-Apr-20 04:30N 40°39' W 074°02'0 0.1
2018-Apr-20 04:00N 40°39' W 074°02'0 0.1
2018-Apr-20 03:30N 40°39' W 074°02'0 0.3
2018-Apr-20 03:00N 40°40' W 074°02'0 0.3
2018-Apr-20 02:30N 40°39' W 074°02'0 0.0
2018-Apr-20 02:00N 40°39' W 074°02'0 0.0
2018-Apr-20 01:30N 40°39' W 074°02'0 0.0
2018-Apr-20 01:00N 40°39' W 074°02'0 0.0
2018-Apr-20 00:30N 40°39' W 074°02'0 0.0
2018-Apr-20 00:00N 40°39' W 074°02'1 2.8
2018-Apr-19 23:30N 40°41' W 074°01'4 7.1
2018-Apr-19 23:00N 40°43' W 073°58'4 8.5
2018-Apr-19 22:30N 40°47' W 073°55'4 0.4
2018-Apr-19 12:29N 40°48' W 073°51'3 6.1
2018-Apr-19 12:00N 40°47' W 073°55'3 6.1
2018-Apr-19 11:30N 40°45' W 073°58'3 5.3
2018-Apr-19 11:00N 40°43' W 073°58'2 5.0
2018-Apr-19 10:30N 40°41' W 074°01'2 3.8
2018-Apr-19 10:00N 40°39' W 074°02'0 0.0
2018-Apr-19 09:30N 40°39' W 074°02'0 0.0
2018-Apr-19 09:00N 40°39' W 074°02'0 0.0
2018-Apr-19 08:30N 40°39' W 074°02'0 0.1
2018-Apr-19 08:00N 40°39' W 074°02'2 3.0
2018-Apr-19 07:30N 40°38' W 074°03'2 3.8
2018-Apr-19 07:00N 40°36' W 074°02'2 3.9
2018-Apr-19 06:28N 40°34' W 074°01'4 5.6
2018-Apr-19 05:49N 40°34' W 073°56'2 0.3
2018-Apr-18 22:14N 40°34' W 073°59'1 5.8
2018-Apr-18 22:00N 40°34' W 074°01'4 8.0
2018-Apr-18 21:30N 40°38' W 074°03'1 2.7
2018-Apr-18 21:00N 40°39' W 074°02'0 0.0
2018-Apr-18 20:30N 40°39' W 074°02'0 0.0
2018-Apr-18 20:00N 40°39' W 074°02'0 0.0
2018-Apr-18 19:30N 40°39' W 074°02'0 0.0
2018-Apr-18 19:00N 40°39' W 074°02'0 0.0
2018-Apr-18 18:30N 40°39' W 074°02'0 0.0
2018-Apr-18 18:00N 40°39' W 074°02'0 0.1
2018-Apr-18 17:30N 40°39' W 074°02'0 0.5
2018-Apr-18 17:00N 40°40' W 074°02'3 5.7
2018-Apr-18 16:30N 40°42' W 073°60'3 5.7
2018-Apr-18 16:00N 40°45' W 073°58'3 5.2
2018-Apr-18 15:30N 40°47' W 073°56'7 3.5
2018-Apr-18 13:31N 40°48' W 073°47'2 0.1
2018-Apr-17 23:30N 40°48' W 073°49'4 7.1
2018-Apr-17 22:59N 40°48' W 073°54'3 7.2
2018-Apr-17 22:30N 40°45' W 073°57'3 5.9
2018-Apr-17 21:57N 40°42' W 073°59'2 5.3
2018-Apr-17 21:30N 40°41' W 074°01'2 3.2
2018-Apr-17 21:00N 40°39' W 074°02'0 0.1
2018-Apr-17 20:30N 40°39' W 074°02'2 3.2
2018-Apr-17 20:00N 40°40' W 074°04'0 0.0
2018-Apr-17 19:30N 40°40' W 074°04'0 0.0
2018-Apr-17 18:59N 40°40' W 074°04'0 0.0
2018-Apr-17 18:30N 40°40' W 074°04'0 0.0
2018-Apr-17 17:59N 40°40' W 074°04'0 0.0
2018-Apr-17 17:30N 40°40' W 074°04'0 0.0
2018-Apr-17 17:00N 40°40' W 074°04'0 0.0
2018-Apr-17 16:30N 40°40' W 074°04'0 0.0
2018-Apr-17 16:00N 40°40' W 074°04'0 0.0
2018-Apr-17 15:30N 40°40' W 074°04'0 0.0
2018-Apr-17 15:00N 40°40' W 074°04'0 0.0
2018-Apr-17 14:30N 40°40' W 074°04'0 0.0
2018-Apr-17 14:00N 40°40' W 074°04'1 1.1
2018-Apr-17 13:30N 40°39' W 074°04'2 3.4
2018-Apr-17 13:00N 40°39' W 074°07'0 0.0
2018-Apr-17 12:29N 40°39' W 074°07'2 4.4
2018-Apr-17 12:00N 40°40' W 074°04'0 0.0
2018-Apr-17 11:30N 40°40' W 074°04'0 0.0
2018-Apr-17 11:00N 40°40' W 074°04'2 3.7
2018-Apr-17 10:29N 40°38' W 074°02'1 1.9
2018-Apr-17 10:00N 40°39' W 074°02'0 0.1
2018-Apr-17 09:30N 40°39' W 074°02'0 0.0
2018-Apr-17 09:00N 40°39' W 074°02'0 0.0
2018-Apr-17 08:30N 40°39' W 074°02'0 0.0
2018-Apr-17 08:00N 40°39' W 074°02'0 0.0
2018-Apr-17 07:30N 40°39' W 074°02'0 0.0
2018-Apr-17 07:00N 40°39' W 074°02'0 0.0
2018-Apr-17 06:30N 40°39' W 074°02'0 0.0
2018-Apr-17 06:00N 40°39' W 074°02'0 0.0
2018-Apr-17 05:30N 40°39' W 074°02'0 0.0
2018-Apr-17 05:00N 40°39' W 074°02'0 0.0
2018-Apr-17 04:30N 40°39' W 074°02'0 0.0
2018-Apr-17 04:00N 40°39' W 074°02'0 0.1
2018-Apr-17 03:30N 40°39' W 074°02'0 0.1
2018-Apr-17 03:00N 40°39' W 074°02'0 0.1
2018-Apr-17 02:30N 40°39' W 074°02'0 0.1
2018-Apr-17 02:00N 40°39' W 074°02'0 0.0
2018-Apr-17 01:30N 40°39' W 074°02'0 0.0
2018-Apr-17 01:00N 40°39' W 074°02'0 0.0
2018-Apr-17 00:30N 40°39' W 074°02'0 0.4
2018-Apr-17 00:00N 40°40' W 074°02'0 0.1
2018-Apr-16 23:30N 40°40' W 074°02'0 0.0
2018-Apr-16 22:59N 40°40' W 074°02'0 0.0
2018-Apr-16 22:30N 40°40' W 074°02'0 0.0
2018-Apr-16 22:00N 40°40' W 074°02'0 0.2
2018-Apr-16 21:30N 40°40' W 074°02'0 0.1
2018-Apr-16 21:00N 40°40' W 074°02'0 0.0
2018-Apr-16 20:29N 40°40' W 074°02'0 0.6
2018-Apr-16 20:00N 40°39' W 074°02'0 0.7
2018-Apr-16 19:30N 40°40' W 074°02'0 0.6
2018-Apr-16 19:00N 40°40' W 074°02'0 0.0
2018-Apr-16 18:30N 40°40' W 074°02'0 0.0
2018-Apr-16 18:00N 40°40' W 074°02'0 0.0
2018-Apr-16 17:30N 40°40' W 074°02'0 0.0
2018-Apr-16 17:00N 40°40' W 074°02'0 0.0
2018-Apr-16 16:30N 40°40' W 074°02'0 0.0
2018-Apr-16 16:00N 40°40' W 074°02'0 0.0
2018-Apr-16 15:30N 40°40' W 074°02'0 0.0
2018-Apr-16 15:00N 40°40' W 074°02'0 0.2
2018-Apr-16 14:30N 40°39' W 074°02'0 0.0
2018-Apr-16 14:00N 40°39' W 074°02'0 0.1
2018-Apr-16 13:30N 40°39' W 074°02'2 2.6
2018-Apr-16 12:50N 40°40' W 074°04'0 0.0
2018-Apr-16 12:30N 40°40' W 074°04'0 0.0
2018-Apr-16 12:00N 40°40' W 074°04'0 0.0
2018-Apr-16 11:30N 40°40' W 074°04'2 3.4
2018-Apr-16 11:00N 40°39' W 074°02'0 0.0
2018-Apr-16 10:28N 40°39' W 074°02'0 0.0
2018-Apr-16 10:00N 40°39' W 074°02'0 0.1
2018-Apr-16 09:30N 40°39' W 074°02'0 0.0
2018-Apr-16 09:00N 40°39' W 074°02'0 0.0
2018-Apr-16 08:30N 40°39' W 074°02'0 0.0
2018-Apr-16 08:00N 40°39' W 074°02'0 0.0
2018-Apr-16 07:30N 40°39' W 074°02'0 0.0
2018-Apr-16 07:00N 40°39' W 074°02'0 0.0
2018-Apr-16 06:30N 40°39' W 074°02'0 0.0
2018-Apr-16 06:00N 40°39' W 074°02'0 0.0
2018-Apr-16 05:30N 40°39' W 074°02'0 0.0
2018-Apr-16 05:00N 40°39' W 074°02'0 0.0
2018-Apr-16 04:30N 40°39' W 074°02'0 0.0
2018-Apr-16 04:00N 40°39' W 074°02'0 0.0
2018-Apr-16 03:30N 40°39' W 074°02'0 0.0
2018-Apr-16 03:00N 40°39' W 074°02'0 0.0
2018-Apr-16 02:30N 40°39' W 074°02'0 0.0
2018-Apr-16 02:00N 40°39' W 074°02'0 0.0
2018-Apr-16 01:30N 40°39' W 074°02'0 0.0
2018-Apr-16 01:00N 40°39' W 074°02'0 0.0
2018-Apr-16 00:30N 40°40' W 074°02'0 0.0
2018-Apr-16 00:00N 40°40' W 074°02'0 0.0
2018-Apr-15 23:29N 40°40' W 074°02'0 0.0
2018-Apr-15 23:00N 40°40' W 074°02'0 0.1
2018-Apr-15 22:30N 40°40' W 074°02'1 2.8
2018-Apr-15 22:00N 40°40' W 074°03'1 1.5
2018-Apr-15 21:30N 40°40' W 074°04'0 0.0
2018-Apr-15 21:00N 40°40' W 074°04'0 0.0
2018-Apr-15 20:30N 40°40' W 074°04'0 0.0
2018-Apr-15 20:00N 40°40' W 074°04'1 1.8
2018-Apr-15 19:30N 40°41' W 074°04'2 4.1
2018-Apr-15 19:00N 40°39' W 074°02'0 0.0
2018-Apr-15 18:30N 40°39' W 074°02'0 0.0
2018-Apr-15 18:00N 40°39' W 074°02'0 0.0
2018-Apr-15 17:30N 40°39' W 074°02'0 0.0
2018-Apr-15 17:00N 40°39' W 074°02'0 0.0
2018-Apr-15 16:30N 40°39' W 074°02'0 0.0
2018-Apr-15 16:00N 40°39' W 074°02'0 0.0
2018-Apr-15 15:30N 40°39' W 074°02'0 0.0
2018-Apr-15 15:00N 40°39' W 074°02'0 0.0
2018-Apr-15 14:30N 40°39' W 074°02'0 0.0
2018-Apr-15 14:00N 40°39' W 074°02'0 0.1
2018-Apr-15 13:30N 40°39' W 074°02'0 0.1
2018-Apr-15 13:00N 40°39' W 074°02'0 0.1
2018-Apr-15 12:30N 40°40' W 074°02'0 0.0
2018-Apr-15 12:00N 40°39' W 074°02'0 0.0
2018-Apr-15 11:30N 40°39' W 074°02'0 0.0
2018-Apr-15 11:00N 40°39' W 074°02'0 0.0
2018-Apr-15 10:30N 40°39' W 074°02'0 0.0
2018-Apr-15 10:00N 40°39' W 074°02'0 0.0
2018-Apr-15 09:30N 40°40' W 074°02'0 0.0
2018-Apr-15 09:00N 40°39' W 074°02'0 0.0
2018-Apr-15 08:30N 40°39' W 074°02'0 0.0
2018-Apr-15 08:00N 40°39' W 074°02'0 0.0
2018-Apr-15 07:30N 40°39' W 074°02'0 0.0
2018-Apr-15 07:00N 40°39' W 074°02'0 0.0
2018-Apr-15 06:30N 40°39' W 074°02'0 0.0
2018-Apr-15 06:00N 40°39' W 074°02'0 0.0
2018-Apr-15 05:30N 40°39' W 074°02'0 0.0
2018-Apr-15 05:00N 40°39' W 074°02'0 0.0
2018-Apr-15 04:30N 40°39' W 074°02'0 0.1
2018-Apr-15 04:00N 40°39' W 074°02'0 0.0
2018-Apr-15 03:30N 40°39' W 074°02'0 0.1
2018-Apr-15 03:00N 40°39' W 074°02'0 0.0
2018-Apr-15 02:30N 40°39' W 074°02'0 0.0
2018-Apr-15 02:00N 40°39' W 074°02'0 0.0
2018-Apr-15 01:30N 40°39' W 074°02'0 0.0
2018-Apr-15 01:00N 40°39' W 074°02'0 0.1
2018-Apr-15 00:30N 40°40' W 074°02'0 0.0
2018-Apr-15 00:00N 40°40' W 074°02'0 0.0
2018-Apr-14 23:30N 40°40' W 074°02'0 0.0
2018-Apr-14 23:00N 40°40' W 074°02'0 0.7
2018-Apr-14 22:30N 40°39' W 074°02'2 3.4
2018-Apr-14 22:00N 40°37' W 074°03'4 7.5
2018-Apr-14 21:27N 40°33' W 074°02'3 0.4
2018-Apr-14 14:03N 40°31' W 074°04'1 5.4
2018-Apr-14 13:51N 40°31' W 074°03'2 5.7
2018-Apr-14 13:30N 40°33' W 074°02'3 4.8
2018-Apr-14 12:50N 40°34' W 073°58'2 6.5
2018-Apr-14 12:30N 40°34' W 073°55'  

Dump ship's entire track history